sensor_id;sensor_type;location;lat;lon;timestamp;pressure;altitude;pressure_sealevel;temperature;humidity
69145;BME280;56251;50.324;17.574;2022-07-06T00:00:43;102109.59;;;15.66;78.99
69145;BME280;56251;50.324;17.574;2022-07-06T00:02:56;102105.95;;;15.69;78.90
69145;BME280;56251;50.324;17.574;2022-07-06T00:03:52;102105.64;;;15.70;78.90
69145;BME280;56251;50.324;17.574;2022-07-06T00:06:04;102107.52;;;15.69;78.99
69145;BME280;56251;50.324;17.574;2022-07-06T00:07:02;102105.89;;;15.70;79.03
69145;BME280;56251;50.324;17.574;2022-07-06T00:09:14;102106.98;;;15.75;78.61
69145;BME280;56251;50.324;17.574;2022-07-06T00:10:12;102105.98;;;15.76;78.60
69145;BME280;56251;50.324;17.574;2022-07-06T00:12:19;102106.01;;;15.72;78.59
69145;BME280;56251;50.324;17.574;2022-07-06T00:13:18;102096.32;;;15.72;78.61
69145;BME280;56251;50.324;17.574;2022-07-06T00:15:26;102086.81;;;15.76;78.52
69145;BME280;56251;50.324;17.574;2022-07-06T00:16:26;102089.55;;;15.74;78.52
69145;BME280;56251;50.324;17.574;2022-07-06T00:18:33;102089.91;;;15.74;78.63
69145;BME280;56251;50.324;17.574;2022-07-06T00:19:35;102090.08;;;15.74;78.59
69145;BME280;56251;50.324;17.574;2022-07-06T00:21:46;102089.26;;;15.77;78.35
69145;BME280;56251;50.324;17.574;2022-07-06T00:22:41;102096.00;;;15.81;78.30
69145;BME280;56251;50.324;17.574;2022-07-06T00:24:54;102103.45;;;15.79;78.50
69145;BME280;56251;50.324;17.574;2022-07-06T00:25:52;102103.35;;;15.76;78.64
69145;BME280;56251;50.324;17.574;2022-07-06T00:28:05;102104.73;;;15.56;79.04
69145;BME280;56251;50.324;17.574;2022-07-06T00:28:59;102103.97;;;15.53;79.10
69145;BME280;56251;50.324;17.574;2022-07-06T00:31:12;102106.91;;;15.39;79.53
69145;BME280;56251;50.324;17.574;2022-07-06T00:32:08;102102.98;;;15.41;79.48
69145;BME280;56251;50.324;17.574;2022-07-06T00:34:19;102097.71;;;15.49;79.13
69145;BME280;56251;50.324;17.574;2022-07-06T00:35:14;102099.93;;;15.51;79.02
69145;BME280;56251;50.324;17.574;2022-07-06T00:37:26;102098.58;;;15.52;78.59
69145;BME280;56251;50.324;17.574;2022-07-06T00:38:25;102099.27;;;15.54;78.45
69145;BME280;56251;50.324;17.574;2022-07-06T00:40:38;102095.94;;;15.46;78.65
69145;BME280;56251;50.324;17.574;2022-07-06T00:41:37;102097.33;;;15.45;78.52
69145;BME280;56251;50.324;17.574;2022-07-06T00:43:53;102099.62;;;15.43;78.75
69145;BME280;56251;50.324;17.574;2022-07-06T00:44:44;102101.34;;;15.44;78.73
69145;BME280;56251;50.324;17.574;2022-07-06T00:46:56;102099.20;;;15.51;78.60
69145;BME280;56251;50.324;17.574;2022-07-06T00:47:51;102100.44;;;15.51;78.65
69145;BME280;56251;50.324;17.574;2022-07-06T00:50:05;102101.99;;;15.51;78.61
69145;BME280;56251;50.324;17.574;2022-07-06T00:51:00;102107.04;;;15.50;78.58
69145;BME280;56251;50.324;17.574;2022-07-06T00:53:21;102100.30;;;15.51;78.29
69145;BME280;56251;50.324;17.574;2022-07-06T00:54:06;102098.80;;;15.50;78.24
69145;BME280;56251;50.324;17.574;2022-07-06T00:56:29;102098.89;;;15.52;78.20
69145;BME280;56251;50.324;17.574;2022-07-06T00:57:18;102100.38;;;15.50;78.20
69145;BME280;56251;50.324;17.574;2022-07-06T00:59:37;102099.09;;;15.53;78.20
69145;BME280;56251;50.324;17.574;2022-07-06T01:00:28;102098.66;;;15.56;78.15
69145;BME280;56251;50.324;17.574;2022-07-06T01:02:44;102096.27;;;15.57;78.07
69145;BME280;56251;50.324;17.574;2022-07-06T01:03:35;102094.25;;;15.55;78.16
69145;BME280;56251;50.324;17.574;2022-07-06T01:05:51;102096.50;;;15.55;78.19
69145;BME280;56251;50.324;17.574;2022-07-06T01:06:44;102097.82;;;15.54;78.22
69145;BME280;56251;50.324;17.574;2022-07-06T01:09:04;102101.74;;;15.54;78.27
69145;BME280;56251;50.324;17.574;2022-07-06T01:09:56;102098.63;;;15.52;78.28
69145;BME280;56251;50.324;17.574;2022-07-06T01:12:21;102098.85;;;15.51;78.45
69145;BME280;56251;50.324;17.574;2022-07-06T01:13:16;102097.82;;;15.49;78.52
69145;BME280;56251;50.324;17.574;2022-07-06T01:15:29;102096.47;;;15.49;78.73
69145;BME280;56251;50.324;17.574;2022-07-06T01:16:15;102095.48;;;15.47;78.74
69145;BME280;56251;50.324;17.574;2022-07-06T01:18:41;102092.43;;;15.47;78.98
69145;BME280;56251;50.324;17.574;2022-07-06T01:19:30;102097.74;;;15.48;78.82
69145;BME280;56251;50.324;17.574;2022-07-06T01:21:53;102092.96;;;15.40;79.13
69145;BME280;56251;50.324;17.574;2022-07-06T01:22:36;102092.91;;;15.42;79.10
69145;BME280;56251;50.324;17.574;2022-07-06T01:25:02;102085.60;;;15.42;79.10
69145;BME280;56251;50.324;17.574;2022-07-06T01:25:43;102087.84;;;15.44;79.09
69145;BME280;56251;50.324;17.574;2022-07-06T01:28:09;102090.58;;;15.45;79.04
69145;BME280;56251;50.324;17.574;2022-07-06T01:28:50;102087.71;;;15.43;79.07
69145;BME280;56251;50.324;17.574;2022-07-06T01:31:20;102087.63;;;15.48;78.89
69145;BME280;56251;50.324;17.574;2022-07-06T01:32:00;102085.37;;;15.46;78.88
69145;BME280;56251;50.324;17.574;2022-07-06T01:34:27;102084.75;;;15.48;78.78
69145;BME280;56251;50.324;17.574;2022-07-06T01:35:07;102082.33;;;15.46;78.78
69145;BME280;56251;50.324;17.574;2022-07-06T01:37:34;102090.71;;;15.48;78.86
69145;BME280;56251;50.324;17.574;2022-07-06T01:38:17;102089.67;;;15.45;78.91
69145;BME280;56251;50.324;17.574;2022-07-06T01:40:40;102088.45;;;15.42;78.81
69145;BME280;56251;50.324;17.574;2022-07-06T01:41:28;102085.17;;;15.42;78.81
69145;BME280;56251;50.324;17.574;2022-07-06T01:43:53;102088.52;;;15.43;78.79
69145;BME280;56251;50.324;17.574;2022-07-06T01:44:38;102088.02;;;15.44;78.87
69145;BME280;56251;50.324;17.574;2022-07-06T01:46:59;102088.32;;;15.44;79.02
69145;BME280;56251;50.324;17.574;2022-07-06T01:47:55;102090.64;;;15.45;79.00
69145;BME280;56251;50.324;17.574;2022-07-06T01:50:08;102091.00;;;15.46;79.04
69145;BME280;56251;50.324;17.574;2022-07-06T01:51:02;102091.64;;;15.47;79.05
69145;BME280;56251;50.324;17.574;2022-07-06T01:53:15;102095.16;;;15.46;79.21
69145;BME280;56251;50.324;17.574;2022-07-06T01:54:11;102093.41;;;15.46;79.27
69145;BME280;56251;50.324;17.574;2022-07-06T01:56:22;102094.59;;;15.44;79.47
69145;BME280;56251;50.324;17.574;2022-07-06T01:57:22;102094.07;;;15.45;79.48
69145;BME280;56251;50.324;17.574;2022-07-06T01:59:32;102092.57;;;15.46;79.42
69145;BME280;56251;50.324;17.574;2022-07-06T02:00:37;102090.61;;;15.46;79.31
69145;BME280;56251;50.324;17.574;2022-07-06T02:02:40;102093.52;;;15.51;79.18
69145;BME280;56251;50.324;17.574;2022-07-06T02:03:46;102096.61;;;15.50;79.18
69145;BME280;56251;50.324;17.574;2022-07-06T02:05:46;102099.20;;;15.55;79.07
69145;BME280;56251;50.324;17.574;2022-07-06T02:06:53;102099.89;;;15.54;79.09
69145;BME280;56251;50.324;17.574;2022-07-06T02:08:53;102103.94;;;15.54;79.07
69145;BME280;56251;50.324;17.574;2022-07-06T02:10:01;102103.05;;;15.51;79.21
69145;BME280;56251;50.324;17.574;2022-07-06T02:12:00;102106.53;;;15.50;79.22
69145;BME280;56251;50.324;17.574;2022-07-06T02:13:10;102108.94;;;15.46;79.19
69145;BME280;56251;50.324;17.574;2022-07-06T02:15:07;102108.26;;;15.46;79.15
69145;BME280;56251;50.324;17.574;2022-07-06T02:16:18;102106.34;;;15.46;78.89
69145;BME280;56251;50.324;17.574;2022-07-06T02:18:14;102105.67;;;15.46;78.62
69145;BME280;56251;50.324;17.574;2022-07-06T02:19:24;102105.55;;;15.49;78.58
69145;BME280;56251;50.324;17.574;2022-07-06T02:21:20;102107.88;;;15.49;78.41
69145;BME280;56251;50.324;17.574;2022-07-06T02:22:30;102108.51;;;15.50;78.36
69145;BME280;56251;50.324;17.574;2022-07-06T02:24:27;102109.13;;;15.49;78.38
69145;BME280;56251;50.324;17.574;2022-07-06T02:25:36;102107.83;;;15.47;78.44
69145;BME280;56251;50.324;17.574;2022-07-06T02:27:34;102110.03;;;15.43;78.74
69145;BME280;56251;50.324;17.574;2022-07-06T02:28:43;102108.85;;;15.42;78.69
69145;BME280;56251;50.324;17.574;2022-07-06T02:30:41;102109.67;;;15.41;78.87
69145;BME280;56251;50.324;17.574;2022-07-06T02:31:51;102107.20;;;15.44;78.84
69145;BME280;56251;50.324;17.574;2022-07-06T02:33:47;102111.02;;;15.46;78.75
69145;BME280;56251;50.324;17.574;2022-07-06T02:34:57;102112.98;;;15.43;78.69
69145;BME280;56251;50.324;17.574;2022-07-06T02:36:54;102112.96;;;15.47;78.59
69145;BME280;56251;50.324;17.574;2022-07-06T02:38:04;102113.01;;;15.48;78.56
69145;BME280;56251;50.324;17.574;2022-07-06T02:40:00;102116.55;;;15.45;78.69
69145;BME280;56251;50.324;17.574;2022-07-06T02:41:11;102119.90;;;15.46;78.67
69145;BME280;56251;50.324;17.574;2022-07-06T02:43:07;102118.57;;;15.47;78.65
69145;BME280;56251;50.324;17.574;2022-07-06T02:44:17;102117.54;;;15.48;78.59
69145;BME280;56251;50.324;17.574;2022-07-06T02:46:13;102123.75;;;15.50;78.52
69145;BME280;56251;50.324;17.574;2022-07-06T02:47:26;102121.98;;;15.48;78.55
69145;BME280;56251;50.324;17.574;2022-07-06T02:49:20;102122.03;;;15.44;78.68
69145;BME280;56251;50.324;17.574;2022-07-06T02:50:33;102120.71;;;15.45;78.61
69145;BME280;56251;50.324;17.574;2022-07-06T02:52:26;102118.57;;;15.47;78.69
69145;BME280;56251;50.324;17.574;2022-07-06T02:53:39;102123.73;;;15.51;78.65
69145;BME280;56251;50.324;17.574;2022-07-06T02:55:33;102115.51;;;15.48;78.72
69145;BME280;56251;50.324;17.574;2022-07-06T02:56:45;102117.28;;;15.49;78.65
69145;BME280;56251;50.324;17.574;2022-07-06T02:58:40;102113.17;;;15.52;78.52
69145;BME280;56251;50.324;17.574;2022-07-06T02:59:53;102113.39;;;15.54;78.42
69145;BME280;56251;50.324;17.574;2022-07-06T03:01:47;102108.02;;;15.55;78.36
69145;BME280;56251;50.324;17.574;2022-07-06T03:03:02;102105.91;;;15.58;78.25
69145;BME280;56251;50.324;17.574;2022-07-06T03:04:54;102107.23;;;15.57;78.11
69145;BME280;56251;50.324;17.574;2022-07-06T03:06:08;102103.06;;;15.59;78.15
69145;BME280;56251;50.324;17.574;2022-07-06T03:08:02;102099.72;;;15.62;78.05
69145;BME280;56251;50.324;17.574;2022-07-06T03:09:15;102096.61;;;15.65;78.01
69145;BME280;56251;50.324;17.574;2022-07-06T03:11:11;102094.79;;;15.68;77.93
69145;BME280;56251;50.324;17.574;2022-07-06T03:12:22;102088.08;;;15.71;77.85
69145;BME280;56251;50.324;17.574;2022-07-06T03:14:19;102083.66;;;15.74;77.75
69145;BME280;56251;50.324;17.574;2022-07-06T03:15:31;102082.38;;;15.78;77.73
69145;BME280;56251;50.324;17.574;2022-07-06T03:17:25;102078.25;;;15.79;77.69
69145;BME280;56251;50.324;17.574;2022-07-06T03:18:41;102080.38;;;15.83;77.62
69145;BME280;56251;50.324;17.574;2022-07-06T03:20:34;102075.51;;;15.83;77.48
69145;BME280;56251;50.324;17.574;2022-07-06T03:21:47;102073.09;;;15.84;77.45
69145;BME280;56251;50.324;17.574;2022-07-06T03:23:48;102072.98;;;15.90;77.39
69145;BME280;56251;50.324;17.574;2022-07-06T03:24:54;102071.74;;;15.93;77.34
69145;BME280;56251;50.324;17.574;2022-07-06T03:26:54;102070.50;;;16.01;77.30
69145;BME280;56251;50.324;17.574;2022-07-06T03:28:01;102071.80;;;16.03;77.23
69145;BME280;56251;50.324;17.574;2022-07-06T03:30:00;102070.53;;;16.07;77.20
69145;BME280;56251;50.324;17.574;2022-07-06T03:31:07;102077.38;;;16.15;76.24
69145;BME280;56251;50.324;17.574;2022-07-06T03:33:07;102082.55;;;16.11;76.00
69145;BME280;56251;50.324;17.574;2022-07-06T03:34:13;102083.52;;;16.10;76.15
69145;BME280;56251;50.324;17.574;2022-07-06T03:36:13;102086.09;;;16.09;75.98
69145;BME280;56251;50.324;17.574;2022-07-06T03:37:19;102082.28;;;16.10;76.13
69145;BME280;56251;50.324;17.574;2022-07-06T03:39:20;102081.55;;;16.14;76.33
69145;BME280;56251;50.324;17.574;2022-07-06T03:40:26;102079.80;;;16.18;76.40
69145;BME280;56251;50.324;17.574;2022-07-06T03:42:26;102077.97;;;16.26;76.17
69145;BME280;56251;50.324;17.574;2022-07-06T03:43:32;102082.30;;;16.28;76.15
69145;BME280;56251;50.324;17.574;2022-07-06T03:45:33;102086.15;;;16.33;75.62
69145;BME280;56251;50.324;17.574;2022-07-06T03:46:48;102087.93;;;16.38;75.53
69145;BME280;56251;50.324;17.574;2022-07-06T03:48:40;102085.45;;;16.40;75.65
69145;BME280;56251;50.324;17.574;2022-07-06T03:49:56;102086.64;;;16.44;75.34
69145;BME280;56251;50.324;17.574;2022-07-06T03:51:46;102086.48;;;16.46;75.24
69145;BME280;56251;50.324;17.574;2022-07-06T03:53:02;102087.46;;;16.51;75.27
69145;BME280;56251;50.324;17.574;2022-07-06T03:54:55;102092.76;;;16.56;75.24
69145;BME280;56251;50.324;17.574;2022-07-06T03:56:09;102092.53;;;16.58;75.42
69145;BME280;56251;50.324;17.574;2022-07-06T03:58:02;102100.35;;;16.68;75.14
69145;BME280;56251;50.324;17.574;2022-07-06T03:59:34;102099.74;;;16.67;75.01
69145;BME280;56251;50.324;17.574;2022-07-06T04:01:09;102095.84;;;16.70;74.49
69145;BME280;56251;50.324;17.574;2022-07-06T04:02:41;102098.40;;;16.67;74.89
69145;BME280;56251;50.324;17.574;2022-07-06T04:04:15;102099.84;;;16.75;75.17
69145;BME280;56251;50.324;17.574;2022-07-06T04:05:47;102101.67;;;16.83;75.29
69145;BME280;56251;50.324;17.574;2022-07-06T04:07:22;102102.84;;;16.89;75.36
69145;BME280;56251;50.324;17.574;2022-07-06T04:08:56;102104.76;;;17.01;75.05
69145;BME280;56251;50.324;17.574;2022-07-06T04:10:30;102106.38;;;17.04;74.96
69145;BME280;56251;50.324;17.574;2022-07-06T04:12:05;102105.06;;;17.12;74.54
69145;BME280;56251;50.324;17.574;2022-07-06T04:13:35;102104.26;;;17.19;74.38
69145;BME280;56251;50.324;17.574;2022-07-06T04:15:12;102111.83;;;17.27;74.51
69145;BME280;56251;50.324;17.574;2022-07-06T04:16:44;102108.60;;;17.42;74.38
69145;BME280;56251;50.324;17.574;2022-07-06T04:18:18;102110.61;;;17.48;74.26
69145;BME280;56251;50.324;17.574;2022-07-06T04:19:50;102111.81;;;17.57;74.13
69145;BME280;56251;50.324;17.574;2022-07-06T04:21:25;102109.03;;;17.67;74.22
69145;BME280;56251;50.324;17.574;2022-07-06T04:22:58;102109.28;;;17.71;72.93
69145;BME280;56251;50.324;17.574;2022-07-06T04:24:32;102110.87;;;17.79;72.44
69145;BME280;56251;50.324;17.574;2022-07-06T04:26:06;102114.52;;;17.87;72.27
69145;BME280;56251;50.324;17.574;2022-07-06T04:27:38;102115.52;;;18.02;71.22
69145;BME280;56251;50.324;17.574;2022-07-06T04:29:15;102117.56;;;18.09;70.82
69145;BME280;56251;50.324;17.574;2022-07-06T04:30:46;102121.64;;;18.13;70.90
69145;BME280;56251;50.324;17.574;2022-07-06T04:32:20;102134.71;;;18.15;70.70
69145;BME280;56251;50.324;17.574;2022-07-06T04:33:53;102138.74;;;18.21;70.71
69145;BME280;56251;50.324;17.574;2022-07-06T04:35:27;102142.63;;;18.29;70.68
69145;BME280;56251;50.324;17.574;2022-07-06T04:37:00;102158.91;;;18.34;70.88
69145;BME280;56251;50.324;17.574;2022-07-06T04:38:34;102170.88;;;18.28;71.41
69145;BME280;56251;50.324;17.574;2022-07-06T04:40:11;102178.23;;;18.25;72.32
69145;BME280;56251;50.324;17.574;2022-07-06T04:41:42;102189.26;;;18.10;71.51
69145;BME280;56251;50.324;17.574;2022-07-06T04:43:21;102193.98;;;18.08;70.86
69145;BME280;56251;50.324;17.574;2022-07-06T04:44:48;102191.29;;;17.91;70.92
69145;BME280;56251;50.324;17.574;2022-07-06T04:46:27;102195.47;;;17.86;71.21
69145;BME280;56251;50.324;17.574;2022-07-06T04:47:57;102197.13;;;17.96;71.04
69145;BME280;56251;50.324;17.574;2022-07-06T04:49:34;102200.70;;;17.83;71.80
69145;BME280;56251;50.324;17.574;2022-07-06T04:51:15;102206.15;;;17.87;71.82
69145;BME280;56251;50.324;17.574;2022-07-06T04:52:45;102197.91;;;17.95;71.59
69145;BME280;56251;50.324;17.574;2022-07-06T04:54:22;102200.83;;;17.87;71.66
69145;BME280;56251;50.324;17.574;2022-07-06T04:55:53;102207.03;;;17.76;71.91
69145;BME280;56251;50.324;17.574;2022-07-06T04:57:29;102218.45;;;17.72;72.20
69145;BME280;56251;50.324;17.574;2022-07-06T04:59:00;102216.07;;;17.50;72.89
69145;BME280;56251;50.324;17.574;2022-07-06T05:00:36;102223.05;;;17.51;73.09
69145;BME280;56251;50.324;17.574;2022-07-06T05:02:10;102224.52;;;17.50;73.37
69145;BME280;56251;50.324;17.574;2022-07-06T05:03:42;102228.34;;;17.38;73.62
69145;BME280;56251;50.324;17.574;2022-07-06T05:05:16;102233.77;;;17.41;73.79
69145;BME280;56251;50.324;17.574;2022-07-06T05:06:49;102241.31;;;17.41;73.77
69145;BME280;56251;50.324;17.574;2022-07-06T05:08:23;102250.30;;;17.37;73.87
69145;BME280;56251;50.324;17.574;2022-07-06T05:09:58;102254.78;;;17.29;74.11
69145;BME280;56251;50.324;17.574;2022-07-06T05:11:41;102253.22;;;17.30;74.26
69145;BME280;56251;50.324;17.574;2022-07-06T05:13:07;102259.02;;;17.18;74.66
69145;BME280;56251;50.324;17.574;2022-07-06T05:14:48;102266.83;;;17.23;74.52
69145;BME280;56251;50.324;17.574;2022-07-06T05:16:16;102267.66;;;17.14;75.00
69145;BME280;56251;50.324;17.574;2022-07-06T05:18:03;102265.32;;;17.06;75.37
69145;BME280;56251;50.324;17.574;2022-07-06T05:19:26;102274.90;;;17.17;75.12
69145;BME280;56251;50.324;17.574;2022-07-06T05:21:09;102272.14;;;17.16;75.10
69145;BME280;56251;50.324;17.574;2022-07-06T05:22:33;102275.68;;;17.19;75.44
69145;BME280;56251;50.324;17.574;2022-07-06T05:24:20;102277.26;;;17.33;75.73
69145;BME280;56251;50.324;17.574;2022-07-06T05:25:40;102285.59;;;17.36;75.68
69145;BME280;56251;50.324;17.574;2022-07-06T05:27:27;102284.37;;;17.22;76.86
69145;BME280;56251;50.324;17.574;2022-07-06T05:28:46;102286.98;;;17.34;77.04
69145;BME280;56251;50.324;17.574;2022-07-06T05:30:41;102288.48;;;17.43;77.14
69145;BME280;56251;50.324;17.574;2022-07-06T05:31:53;102288.43;;;17.46;77.51
69145;BME280;56251;50.324;17.574;2022-07-06T05:33:48;102289.38;;;17.52;77.60
69145;BME280;56251;50.324;17.574;2022-07-06T05:35:00;102292.15;;;17.54;77.73
69145;BME280;56251;50.324;17.574;2022-07-06T05:36:58;102292.23;;;17.42;78.18
69145;BME280;56251;50.324;17.574;2022-07-06T05:38:08;102297.35;;;17.35;78.52
69145;BME280;56251;50.324;17.574;2022-07-06T05:40:07;102301.26;;;17.23;79.39
69145;BME280;56251;50.324;17.574;2022-07-06T05:41:15;102300.66;;;17.19;79.31
69145;BME280;56251;50.324;17.574;2022-07-06T05:43:18;102301.44;;;17.08;79.38
69145;BME280;56251;50.324;17.574;2022-07-06T05:44:21;102309.11;;;16.93;80.20
69145;BME280;56251;50.324;17.574;2022-07-06T05:46:30;102306.85;;;16.81;80.70
69145;BME280;56251;50.324;17.574;2022-07-06T05:47:34;102305.95;;;16.68;81.20
69145;BME280;56251;50.324;17.574;2022-07-06T05:49:38;102316.89;;;16.73;81.64
69145;BME280;56251;50.324;17.574;2022-07-06T05:51:19;102315.39;;;16.65;82.13
69145;BME280;56251;50.324;17.574;2022-07-06T05:53:17;102318.06;;;16.57;82.52
69145;BME280;56251;50.324;17.574;2022-07-06T05:54:25;102320.31;;;16.59;82.83
69145;BME280;56251;50.324;17.574;2022-07-06T05:56:23;102323.11;;;16.54;83.38
69145;BME280;56251;50.324;17.574;2022-07-06T05:57:32;102330.63;;;16.53;83.59
69145;BME280;56251;50.324;17.574;2022-07-06T05:59:30;102331.38;;;16.31;84.10
69145;BME280;56251;50.324;17.574;2022-07-06T06:00:39;102332.00;;;16.42;83.99
69145;BME280;56251;50.324;17.574;2022-07-06T06:02:41;102335.44;;;16.37;84.07
69145;BME280;56251;50.324;17.574;2022-07-06T06:03:45;102340.96;;;16.39;83.78
69145;BME280;56251;50.324;17.574;2022-07-06T06:05:50;102334.39;;;16.10;84.75
69145;BME280;56251;50.324;17.574;2022-07-06T06:06:52;102340.45;;;16.07;85.35
69145;BME280;56251;50.324;17.574;2022-07-06T06:08:56;102336.62;;;16.14;85.16
69145;BME280;56251;50.324;17.574;2022-07-06T06:09:58;102335.78;;;16.08;85.36
69145;BME280;56251;50.324;17.574;2022-07-06T06:12:04;102334.97;;;15.92;85.82
69145;BME280;56251;50.324;17.574;2022-07-06T06:13:04;102334.58;;;15.96;86.03
69145;BME280;56251;50.324;17.574;2022-07-06T06:15:12;102331.88;;;16.14;85.80
69145;BME280;56251;50.324;17.574;2022-07-06T06:16:11;102330.35;;;16.23;85.65
69145;BME280;56251;50.324;17.574;2022-07-06T06:19:17;102325.38;;;16.32;85.09
69145;BME280;56251;50.324;17.574;2022-07-06T06:21:32;102324.78;;;16.18;84.42
69145;BME280;56251;50.324;17.574;2022-07-06T06:22:24;102317.09;;;16.26;84.34
69145;BME280;56251;50.324;17.574;2022-07-06T06:24:43;102310.73;;;16.31;83.59
69145;BME280;56251;50.324;17.574;2022-07-06T06:25:38;102305.71;;;16.34;83.30
69145;BME280;56251;50.324;17.574;2022-07-06T06:27:49;102291.38;;;16.47;81.95
69145;BME280;56251;50.324;17.574;2022-07-06T06:28:44;102289.70;;;16.53;81.81
69145;BME280;56251;50.324;17.574;2022-07-06T06:30:58;102287.32;;;16.69;81.43
69145;BME280;56251;50.324;17.574;2022-07-06T06:31:50;102282.20;;;16.76;81.01
69145;BME280;56251;50.324;17.574;2022-07-06T06:34:07;102274.47;;;16.92;80.77
69145;BME280;56251;50.324;17.574;2022-07-06T06:35:02;102265.45;;;16.95;80.31
69145;BME280;56251;50.324;17.574;2022-07-06T06:37:15;102256.85;;;17.06;79.51
69145;BME280;56251;50.324;17.574;2022-07-06T06:38:09;102255.88;;;17.10;79.40
69145;BME280;56251;50.324;17.574;2022-07-06T06:40:22;102245.99;;;17.18;79.32
69145;BME280;56251;50.324;17.574;2022-07-06T06:41:15;102247.17;;;17.25;78.94
69145;BME280;56251;50.324;17.574;2022-07-06T06:43:28;102239.39;;;17.36;78.01
69145;BME280;56251;50.324;17.574;2022-07-06T06:44:22;102235.34;;;17.35;77.89
69145;BME280;56251;50.324;17.574;2022-07-06T06:46:35;102226.66;;;17.42;77.96
69145;BME280;56251;50.324;17.574;2022-07-06T06:47:29;102226.02;;;17.48;77.78
69145;BME280;56251;50.324;17.574;2022-07-06T06:49:42;102213.77;;;17.54;77.09
69145;BME280;56251;50.324;17.574;2022-07-06T06:50:38;102215.49;;;17.54;76.83
69145;BME280;56251;50.324;17.574;2022-07-06T06:52:52;102215.47;;;17.44;76.55
69145;BME280;56251;50.324;17.574;2022-07-06T06:53:54;102222.08;;;17.44;76.77
69145;BME280;56251;50.324;17.574;2022-07-06T07:26:58;102233.26;;;19.92;67.53
69145;BME280;56251;50.324;17.574;2022-07-06T07:27:20;102231.63;;;19.94;67.40
69145;BME280;56251;50.324;17.574;2022-07-06T07:33:27;102227.30;;;20.61;64.97
69145;BME280;56251;50.324;17.574;2022-07-06T07:33:47;102227.95;;;20.69;64.47
